createdAt,value
2023-02-23T00:01:56.255Z,18.35
2023-02-23T00:03:59.102Z,19.48
2023-02-23T00:06:03.059Z,18.27
2023-02-23T00:08:04.630Z,18.95
2023-02-23T00:10:06.749Z,18.08
2023-02-23T00:12:08.548Z,17.50
2023-02-23T00:14:10.013Z,16.55
2023-02-23T00:16:14.952Z,18.30
2023-02-23T00:18:16.484Z,17.17
2023-02-23T00:20:18.106Z,17.52
2023-02-23T00:22:19.504Z,17.33
2023-02-23T00:24:21.171Z,17.27
2023-02-23T00:26:25.233Z,17.13
2023-02-23T00:28:26.638Z,16.98
2023-02-23T00:30:28.163Z,15.88
2023-02-23T00:32:29.930Z,17.58
2023-02-23T00:34:31.416Z,17.25
2023-02-23T00:36:35.192Z,17.50
2023-02-23T00:38:37.684Z,16.98
2023-02-23T00:40:42.226Z,17.33
2023-02-23T00:42:45.142Z,18.05
2023-02-23T00:44:46.599Z,17.90
2023-02-23T00:46:48.001Z,18.25
2023-02-23T00:48:51.039Z,18.23
2023-02-23T00:51:01.661Z,19.52
2023-02-23T00:53:03.090Z,20.00
2023-02-23T00:55:06.313Z,20.90
2023-02-23T00:57:08.184Z,19.05
2023-02-23T00:59:10.330Z,18.42
2023-02-23T01:01:14.112Z,18.42
2023-02-23T01:03:15.808Z,17.70
2023-02-23T01:05:17.366Z,17.90
2023-02-23T01:07:18.955Z,17.75
2023-02-23T01:09:20.569Z,18.23
2023-02-23T01:11:24.624Z,17.60
2023-02-23T01:13:26.243Z,17.52
2023-02-23T01:15:27.725Z,17.48
2023-02-23T01:17:29.159Z,17.35
2023-02-23T01:19:30.820Z,17.75
2023-02-23T01:21:41.678Z,18.02
2023-02-23T01:23:43.302Z,17.65
2023-02-23T01:25:45.519Z,16.60
2023-02-23T01:27:47.028Z,17.35
2023-02-23T01:29:48.431Z,18.38
2023-02-23T01:31:50.411Z,18.38
2023-02-23T01:33:55.641Z,17.52
2023-02-23T01:35:59.648Z,17.75
2023-02-23T01:38:01.490Z,18.13
2023-02-23T01:40:03.515Z,18.80
2023-02-23T01:42:09.940Z,18.45
2023-02-23T01:44:14.383Z,16.83
2023-02-23T01:46:16.007Z,17.55
2023-02-23T01:48:20.559Z,18.15
2023-02-23T01:50:24.153Z,18.88
2023-02-23T01:54:44.138Z,17.42
2023-02-23T01:56:48.949Z,17.60
2023-02-23T01:58:53.033Z,17.50
2023-02-23T02:00:59.316Z,18.35
2023-02-23T02:03:04.716Z,17.20
2023-02-23T02:05:07.546Z,17.42
2023-02-23T02:07:09.887Z,16.77
2023-02-23T02:09:15.218Z,16.98
2023-02-23T02:11:19.170Z,15.90
2023-02-23T02:13:23.327Z,16.95
2023-02-23T02:15:32.600Z,16.15
2023-02-23T02:17:58.865Z,15.88
2023-02-23T02:20:18.696Z,15.35
2023-02-23T02:22:41.125Z,15.90
2023-02-23T02:25:13.873Z,15.02
2023-02-23T02:27:33.831Z,14.45
2023-02-23T02:29:38.079Z,15.20
2023-02-23T02:32:08.920Z,15.77
2023-02-23T02:34:32.810Z,15.75
2023-02-23T02:37:19.765Z,13.85
2023-02-23T02:39:30.014Z,14.10
2023-02-23T02:41:56.248Z,15.20
2023-02-23T02:44:11.720Z,14.88
2023-02-23T02:46:21.477Z,14.68
2023-02-23T02:49:01.210Z,14.48
2023-02-23T02:51:21.481Z,13.90
2023-02-23T02:53:30.902Z,13.63
2023-02-23T02:55:34.741Z,14.25
2023-02-23T02:57:37.140Z,14.60
2023-02-23T02:59:47.587Z,13.80
2023-02-23T03:01:49.106Z,14.40
2023-02-23T03:03:50.672Z,13.80
2023-02-23T03:05:54.382Z,13.82
2023-02-23T03:08:21.854Z,14.30
2023-02-23T03:10:36.795Z,13.15
2023-02-23T03:12:45.859Z,13.07
2023-02-23T03:14:57.390Z,13.05
2023-02-23T03:17:25.204Z,13.63
2023-02-23T03:19:30.369Z,13.43
2023-02-23T03:21:41.241Z,13.85
2023-02-23T03:24:07.765Z,13.10
2023-02-23T03:26:12.108Z,14.13
2023-02-23T03:28:27.299Z,13.60
2023-02-23T03:30:47.309Z,13.27
2023-02-23T03:32:53.927Z,12.52
2023-02-23T03:35:01.686Z,13.63
2023-02-23T03:37:13.726Z,13.65
2023-02-23T03:39:37.418Z,13.27
2023-02-23T03:41:41.238Z,13.75
2023-02-23T03:43:51.147Z,15.00
2023-02-23T03:45:56.001Z,17.55
2023-02-23T03:48:00.927Z,13.95
2023-02-23T03:50:06.918Z,13.15
2023-02-23T03:52:18.677Z,12.35
2023-02-23T03:54:39.131Z,13.27
2023-02-23T03:56:45.115Z,13.88
2023-02-23T03:58:58.332Z,14.50
2023-02-23T04:01:03.179Z,14.40
2023-02-23T04:03:09.564Z,14.43
2023-02-23T04:05:16.729Z,14.00
2023-02-23T04:07:19.575Z,12.77
2023-02-23T04:09:21.336Z,14.35
2023-02-23T04:11:34.663Z,13.73
2023-02-23T04:13:40.016Z,12.20
2023-02-23T04:15:55.680Z,12.85
2023-02-23T04:17:57.232Z,12.50
2023-02-23T04:19:58.643Z,12.80
2023-02-23T04:22:00.242Z,13.50
2023-02-23T04:24:01.760Z,13.25
2023-02-23T04:26:03.187Z,14.18
2023-02-23T04:28:04.969Z,12.55
2023-02-23T04:30:07.158Z,12.02
2023-02-23T04:32:14.052Z,13.10
2023-02-23T04:34:15.711Z,13.02
2023-02-23T04:36:17.307Z,12.38
2023-02-23T04:38:18.705Z,12.90
2023-02-23T04:40:20.239Z,13.23
2023-02-23T04:42:22.080Z,12.48
2023-02-23T04:44:23.595Z,12.23
2023-02-23T04:46:25.140Z,12.30
2023-02-23T04:48:26.845Z,12.80
2023-02-23T04:50:28.310Z,13.02
2023-02-23T04:52:29.914Z,12.63
2023-02-23T04:54:31.465Z,12.43
2023-02-23T04:56:33.127Z,12.77
2023-02-23T04:58:34.726Z,13.05
2023-02-23T05:00:36.378Z,13.55
2023-02-23T05:02:37.900Z,16.02
2023-02-23T05:04:39.529Z,16.88
2023-02-23T05:06:41.168Z,21.00
2023-02-23T05:08:42.631Z,17.77
2023-02-23T05:10:46.187Z,17.38
2023-02-23T05:14:49.031Z,14.45
2023-02-23T05:16:50.604Z,15.43
2023-02-23T05:18:52.134Z,14.98
2023-02-23T05:21:00.987Z,17.40
2023-02-23T05:23:02.466Z,14.60
2023-02-23T05:25:04.446Z,15.23
2023-02-23T05:27:07.604Z,15.05
2023-02-23T05:29:09.390Z,13.48
2023-02-23T05:31:11.662Z,13.90
2023-02-23T05:33:13.132Z,13.93
2023-02-23T05:35:14.872Z,13.88
2023-02-23T05:37:16.282Z,14.10
2023-02-23T05:39:17.700Z,13.27
2023-02-23T05:41:21.163Z,13.57
2023-02-23T05:43:22.770Z,14.63
2023-02-23T05:45:24.197Z,13.70
2023-02-23T05:47:25.839Z,13.82
2023-02-23T05:49:27.331Z,13.55
2023-02-23T05:51:31.631Z,12.98
2023-02-23T05:53:33.234Z,12.98
2023-02-23T05:55:36.199Z,13.98
2023-02-23T05:57:38.617Z,13.75
2023-02-23T05:59:40.230Z,14.48
2023-02-23T06:01:41.969Z,14.35
2023-02-23T06:03:44.727Z,14.73
2023-02-23T06:05:50.638Z,13.77
2023-02-23T06:07:52.026Z,14.45
2023-02-23T06:09:53.510Z,13.85
2023-02-23T06:11:55.036Z,13.43
2023-02-23T06:13:58.803Z,14.00
2023-02-23T06:16:00.975Z,13.45
2023-02-23T06:18:02.772Z,13.73
2023-02-23T06:20:05.395Z,14.23
2023-02-23T06:22:06.813Z,15.57
2023-02-23T06:24:08.289Z,14.00
2023-02-23T06:26:09.854Z,13.80
2023-02-23T06:28:11.579Z,14.70
2023-02-23T06:30:13.539Z,13.75
2023-02-23T06:32:15.007Z,14.23
2023-02-23T06:34:16.607Z,14.70
2023-02-23T06:36:18.574Z,14.55
2023-02-23T06:38:20.650Z,14.05
2023-02-23T06:40:22.138Z,13.75
2023-02-23T06:42:23.784Z,15.25
2023-02-23T06:44:25.274Z,13.88
2023-02-23T06:46:26.699Z,13.95
2023-02-23T06:48:28.446Z,14.52
2023-02-23T06:50:29.875Z,14.95
2023-02-23T06:52:31.462Z,14.70
2023-02-23T06:54:33.002Z,15.10
2023-02-23T06:56:34.436Z,14.70
2023-02-23T06:58:35.972Z,15.32
2023-02-23T07:00:37.957Z,15.77
2023-02-23T07:02:39.359Z,15.07
2023-02-23T07:04:40.920Z,14.85
2023-02-23T07:06:42.410Z,16.25
2023-02-23T07:08:43.887Z,16.35
2023-02-23T07:10:46.389Z,17.10
2023-02-23T07:12:47.792Z,16.20
2023-02-23T07:14:49.189Z,15.90
2023-02-23T07:16:50.740Z,27.73
2023-02-23T07:18:52.232Z,16.10
2023-02-23T07:20:53.673Z,16.45
2023-02-23T07:22:55.143Z,15.52
2023-02-23T07:24:57.696Z,17.10
2023-02-23T07:26:59.107Z,16.70
2023-02-23T07:29:01.082Z,16.48
2023-02-23T07:31:02.731Z,17.55
2023-02-23T07:33:04.147Z,16.80
2023-02-23T07:35:06.498Z,16.15
2023-02-23T07:37:08.094Z,16.88
2023-02-23T07:39:09.515Z,16.98
2023-02-23T07:41:10.911Z,16.20
2023-02-23T07:43:12.447Z,15.85
2023-02-23T07:45:13.954Z,16.35
2023-02-23T07:47:15.445Z,17.40
2023-02-23T07:49:17.036Z,18.15
2023-02-23T07:51:19.078Z,17.45
2023-02-23T07:53:20.859Z,16.50
2023-02-23T07:55:22.514Z,16.52
2023-02-23T07:57:24.999Z,17.30
2023-02-23T07:59:26.888Z,17.20
2023-02-23T08:01:28.416Z,17.80
2023-02-23T08:03:30.101Z,17.08
2023-02-23T08:05:31.640Z,16.27
2023-02-23T08:07:33.964Z,16.35
2023-02-23T08:09:35.500Z,16.17
2023-02-23T08:11:37.098Z,15.80
2023-02-23T08:13:38.808Z,16.25
2023-02-23T08:15:40.215Z,16.15
2023-02-23T08:17:42.121Z,16.50
2023-02-23T08:19:43.572Z,15.95
2023-02-23T08:21:44.982Z,18.02
2023-02-23T08:23:46.552Z,16.73
2023-02-23T08:25:48.029Z,15.27
2023-02-23T08:27:49.979Z,14.13
2023-02-23T08:29:51.480Z,14.95
2023-02-23T08:31:53.271Z,14.48
2023-02-23T08:33:54.773Z,15.45
2023-02-23T08:35:59.035Z,13.75
2023-02-23T08:38:00.584Z,13.43
2023-02-23T08:40:02.013Z,17.88
2023-02-23T08:42:04.259Z,13.63
2023-02-23T08:44:05.805Z,14.40
2023-02-23T08:46:07.829Z,13.43
2023-02-23T08:48:09.371Z,15.65
2023-02-23T08:50:11.912Z,14.80
2023-02-23T08:52:13.434Z,15.27
2023-02-23T08:54:15.113Z,15.05
2023-02-23T08:56:16.657Z,13.68
2023-02-23T08:58:18.054Z,11.85
2023-02-23T09:00:20.073Z,13.57
2023-02-23T09:02:21.487Z,13.70
2023-02-23T09:04:22.900Z,12.48
2023-02-23T09:06:25.544Z,13.18
2023-02-23T09:08:26.972Z,12.27
2023-02-23T09:10:28.389Z,14.05
2023-02-23T09:12:29.869Z,16.58
2023-02-23T09:14:31.300Z,13.43
2023-02-23T09:16:32.697Z,12.85
2023-02-23T09:18:36.116Z,13.05
2023-02-23T09:20:37.714Z,13.50
2023-02-23T09:22:40.667Z,13.20
2023-02-23T09:24:42.219Z,12.93
2023-02-23T09:26:45.856Z,13.52
2023-02-23T09:28:48.586Z,15.18
2023-02-23T09:30:50.260Z,12.52
2023-02-23T09:32:52.839Z,13.35
2023-02-23T09:34:54.227Z,14.07
2023-02-23T09:36:55.852Z,13.95
2023-02-23T09:38:58.334Z,14.00
2023-02-23T09:40:59.891Z,13.68
2023-02-23T09:43:13.698Z,13.52
2023-02-23T09:45:29.273Z,14.50
2023-02-23T09:47:52.648Z,12.25
2023-02-23T09:49:55.455Z,12.93
2023-02-23T09:52:00.003Z,14.00
2023-02-23T09:54:03.132Z,14.98
2023-02-23T09:56:11.512Z,14.43
2023-02-23T09:58:22.151Z,14.57
2023-02-23T10:00:26.223Z,13.77
2023-02-23T10:02:36.387Z,13.77
2023-02-23T10:04:47.206Z,18.45
2023-02-23T10:07:05.578Z,13.95
2023-02-23T10:09:27.496Z,12.90
2023-02-23T10:11:46.202Z,14.15
2023-02-23T10:14:17.938Z,13.95
2023-02-23T10:16:35.874Z,16.50
2023-02-23T10:18:55.602Z,15.52
2023-02-23T10:21:02.936Z,13.27
2023-02-23T10:23:19.629Z,14.57
2023-02-23T10:25:26.006Z,13.80
2023-02-23T10:27:36.522Z,13.88
2023-02-23T10:29:59.386Z,13.88
2023-02-23T10:32:06.304Z,13.25
2023-02-23T10:34:14.920Z,14.50
2023-02-23T10:36:40.173Z,13.32
2023-02-23T10:38:41.778Z,14.13
2023-02-23T10:40:46.395Z,13.27
2023-02-23T10:42:47.838Z,14.07
2023-02-23T10:44:49.793Z,16.50
2023-02-23T10:47:09.065Z,15.82
2023-02-23T10:49:21.433Z,13.50
2023-02-23T10:51:30.087Z,15.20
2023-02-23T10:53:36.527Z,15.57
2023-02-23T10:55:37.973Z,13.85
2023-02-23T10:57:40.182Z,14.98
2023-02-23T11:00:16.323Z,15.82
2023-02-23T11:02:26.284Z,14.82
2023-02-23T11:04:30.969Z,13.98
2023-02-23T11:06:35.751Z,14.45
2023-02-23T11:08:38.744Z,16.05
2023-02-23T11:10:40.864Z,13.50
2023-02-23T11:12:42.262Z,14.40
2023-02-23T11:14:43.675Z,15.63
2023-02-23T11:16:45.279Z,13.63
2023-02-23T11:19:21.008Z,15.57
2023-02-23T11:21:26.197Z,14.68
2023-02-23T11:23:31.767Z,14.65
2023-02-23T11:25:33.678Z,13.40
2023-02-23T11:27:35.208Z,13.85
2023-02-23T11:29:44.071Z,14.07
2023-02-23T11:31:50.147Z,14.38
2023-02-23T11:33:55.098Z,15.80
2023-02-23T11:36:00.632Z,15.13
2023-02-23T11:38:16.744Z,14.02
2023-02-23T11:40:28.521Z,14.10
2023-02-23T11:42:33.224Z,14.90
2023-02-23T11:44:34.678Z,15.68
2023-02-23T11:46:37.833Z,19.35
2023-02-23T11:48:50.930Z,16.15
2023-02-23T11:50:53.579Z,16.05
2023-02-23T11:53:11.924Z,15.75
2023-02-23T11:55:18.334Z,16.73
2023-02-23T11:57:31.170Z,15.18
2023-02-23T11:59:44.571Z,15.45
2023-02-23T12:03:55.670Z,19.77
2023-02-23T12:05:58.481Z,21.92
2023-02-23T12:08:06.940Z,15.33
2023-02-23T12:10:29.732Z,14.73
2023-02-23T12:12:34.311Z,29.90
2023-02-23T12:14:38.972Z,15.02
2023-02-23T12:16:49.674Z,35.88
2023-02-23T12:19:32.344Z,17.63
2023-02-23T12:21:46.686Z,22.55
2023-02-23T12:23:51.966Z,23.77
2023-02-23T12:25:57.642Z,18.58
2023-02-23T12:28:17.869Z,17.17
2023-02-23T12:30:23.214Z,20.13
2023-02-23T12:32:29.206Z,24.05
2023-02-23T12:34:40.413Z,21.88
2023-02-23T12:36:49.966Z,20.73
2023-02-23T12:39:31.242Z,20.98
2023-02-23T12:41:48.495Z,20.48
2023-02-23T12:43:49.860Z,15.85
2023-02-23T12:46:18.721Z,30.45
2023-02-23T12:48:32.308Z,21.25
2023-02-23T12:50:39.222Z,20.45
2023-02-23T12:52:50.931Z,28.85
2023-02-23T12:54:52.510Z,18.35
2023-02-23T12:57:09.305Z,17.38
2023-02-23T12:59:36.017Z,16.83
2023-02-23T13:01:50.451Z,18.20
2023-02-23T13:04:29.532Z,17.63
2023-02-23T13:06:56.826Z,14.93
2023-02-23T13:09:17.233Z,16.20
2023-02-23T13:11:19.066Z,16.20
2023-02-23T13:13:58.867Z,16.30
2023-02-23T13:16:08.347Z,15.55
2023-02-23T13:18:26.762Z,15.88
2023-02-23T13:20:51.779Z,16.08
2023-02-23T13:23:04.078Z,15.70
2023-02-23T13:25:28.218Z,18.38
2023-02-23T13:27:38.596Z,14.82
2023-02-23T13:29:42.826Z,18.33
2023-02-23T13:31:44.722Z,17.55
2023-02-23T13:33:46.570Z,15.85
2023-02-23T13:35:48.235Z,16.05
2023-02-23T13:37:57.422Z,16.08
2023-02-23T13:40:23.067Z,18.45
2023-02-23T13:42:31.884Z,17.90
2023-02-23T13:44:41.785Z,55.10
2023-02-23T13:46:49.078Z,72.03
2023-02-23T13:48:58.404Z,34.38
2023-02-23T13:51:13.092Z,33.33
2023-02-23T13:53:59.290Z,90.30
2023-02-23T13:56:06.472Z,124.07
2023-02-23T13:58:16.940Z,36.92
2023-02-23T14:00:20.725Z,73.95
2023-02-23T14:02:22.214Z,50.65
2023-02-23T14:04:34.335Z,97.45
2023-02-23T14:06:35.891Z,48.67
2023-02-23T14:08:39.112Z,85.85
2023-02-23T14:10:43.883Z,109.70
2023-02-23T14:13:04.064Z,36.90
2023-02-23T14:15:24.055Z,36.63
2023-02-23T14:17:39.070Z,29.92
2023-02-23T14:19:56.183Z,24.33
2023-02-23T14:22:03.093Z,24.73
2023-02-23T14:24:04.542Z,26.58
2023-02-23T14:26:28.359Z,22.98
2023-02-23T14:28:29.739Z,19.67
2023-02-23T14:30:47.693Z,19.55
2023-02-23T14:32:50.246Z,27.98
2023-02-23T14:35:00.386Z,19.33
2023-02-23T14:37:16.118Z,22.95
2023-02-23T14:39:28.502Z,26.00
2023-02-23T14:41:37.303Z,18.60
2023-02-23T14:43:41.269Z,26.80
2023-02-23T14:45:46.357Z,21.83
2023-02-23T14:47:50.916Z,18.75
2023-02-23T14:49:57.128Z,27.50
2023-02-23T14:52:06.392Z,27.55
2023-02-23T14:54:24.513Z,19.25
2023-02-23T14:56:32.691Z,22.70
2023-02-23T14:58:40.332Z,24.52
2023-02-23T15:00:43.835Z,29.08
2023-02-23T15:03:05.235Z,21.70
2023-02-23T15:05:17.360Z,18.33
2023-02-23T15:07:31.422Z,18.20
2023-02-23T15:11:39.428Z,15.15
2023-02-23T15:13:44.057Z,15.43
2023-02-23T15:15:46.087Z,15.13
2023-02-23T15:17:52.494Z,16.80
2023-02-23T15:20:14.417Z,16.90
2023-02-23T15:22:31.148Z,17.23
2023-02-23T15:24:44.417Z,18.08
2023-02-23T15:26:46.024Z,19.05
2023-02-23T15:28:47.892Z,16.58
2023-02-23T15:30:51.116Z,16.60
2023-02-23T15:33:10.936Z,16.15
2023-02-23T15:35:13.737Z,16.98
2023-02-23T15:37:39.152Z,18.42
2023-02-23T15:39:50.235Z,18.98
2023-02-23T15:41:51.749Z,18.48
2023-02-23T15:43:53.380Z,20.63
2023-02-23T15:45:56.425Z,21.40
2023-02-23T15:48:02.740Z,22.85
2023-02-23T15:50:14.198Z,21.70
2023-02-23T15:52:22.090Z,19.20
2023-02-23T15:54:35.643Z,20.75
2023-02-23T15:56:37.234Z,18.30
2023-02-23T15:58:51.019Z,16.83
2023-02-23T16:01:02.423Z,17.75
2023-02-23T16:03:05.839Z,18.63
2023-02-23T16:05:21.968Z,19.00
2023-02-23T16:07:26.586Z,18.10
2023-02-23T16:09:29.144Z,19.42
2023-02-23T16:11:35.863Z,19.63
2023-02-23T16:13:37.864Z,21.50
2023-02-23T16:15:40.437Z,25.52
2023-02-23T16:17:54.186Z,28.25
2023-02-23T16:20:17.564Z,24.33
2023-02-23T16:22:23.573Z,21.58
2023-02-23T16:24:28.813Z,22.63
2023-02-23T16:27:05.667Z,19.85
2023-02-23T16:29:13.672Z,19.75
2023-02-23T16:31:24.662Z,18.23
2023-02-23T16:33:28.738Z,17.30
2023-02-23T16:35:37.884Z,19.30
2023-02-23T16:37:58.862Z,17.70
2023-02-23T16:40:00.365Z,17.73
2023-02-23T16:42:02.001Z,23.45
2023-02-23T16:44:05.475Z,79.07
2023-02-23T16:46:07.106Z,42.85
2023-02-23T16:48:13.424Z,136.70
2023-02-23T16:50:23.187Z,39.53
2023-02-23T16:52:24.931Z,43.42
2023-02-23T16:54:26.912Z,68.43
2023-02-23T16:56:28.314Z,45.38
2023-02-23T16:58:29.949Z,90.65
2023-02-23T17:00:33.610Z,134.35
2023-02-23T17:04:36.611Z,73.38
2023-02-23T17:06:38.296Z,96.88
2023-02-23T17:08:45.929Z,37.95
2023-02-23T17:10:54.482Z,58.17
2023-02-23T17:12:58.876Z,89.03
2023-02-23T17:15:00.294Z,68.88
2023-02-23T17:17:02.058Z,62.05
2023-02-23T17:19:03.670Z,61.58
2023-02-23T17:21:08.030Z,57.33
2023-02-23T17:23:09.579Z,30.55
2023-02-23T17:25:11.248Z,27.95
2023-02-23T17:27:12.635Z,26.02
2023-02-23T17:29:14.264Z,30.00
2023-02-23T17:31:17.441Z,24.23
2023-02-23T17:33:19.235Z,19.92
2023-02-23T17:35:21.048Z,20.58
2023-02-23T17:37:22.599Z,28.48
2023-02-23T17:39:24.217Z,27.27
2023-02-23T17:41:26.533Z,19.88
2023-02-23T17:43:28.095Z,20.05
2023-02-23T17:45:29.699Z,23.98
2023-02-23T17:47:33.407Z,22.60
2023-02-23T17:51:36.888Z,20.00
2023-02-23T17:53:39.728Z,19.55
2023-02-23T17:55:41.302Z,18.80
2023-02-23T17:57:42.977Z,20.35
2023-02-23T17:59:44.665Z,21.23
2023-02-23T18:01:47.400Z,21.20
2023-02-23T18:03:49.927Z,21.52
2023-02-23T18:05:51.999Z,21.25
2023-02-23T18:07:53.624Z,23.27
2023-02-23T18:09:55.127Z,20.95
2023-02-23T18:11:56.662Z,20.30
2023-02-23T18:13:58.321Z,21.20
2023-02-23T18:16:05.351Z,21.83
2023-02-23T18:18:07.020Z,21.58
2023-02-23T18:20:09.230Z,20.60
2023-02-23T18:22:11.297Z,19.80
2023-02-23T18:24:12.996Z,20.08
2023-02-23T18:26:16.962Z,19.63
2023-02-23T18:28:18.688Z,20.52
2023-02-23T18:30:22.567Z,21.40
2023-02-23T18:32:24.507Z,22.20
2023-02-23T18:34:27.332Z,30.90
2023-02-23T18:36:34.158Z,44.77
2023-02-23T18:38:35.762Z,60.25
2023-02-23T18:40:37.936Z,56.15
2023-02-23T18:42:39.646Z,53.75
2023-02-23T18:44:41.159Z,42.35
2023-02-23T18:46:44.230Z,30.65
2023-02-23T18:48:49.826Z,24.08
2023-02-23T18:50:56.264Z,23.13
2023-02-23T18:52:57.644Z,21.55
2023-02-23T18:54:59.316Z,21.40
2023-02-23T18:57:01.005Z,21.52
2023-02-23T18:59:02.442Z,23.05
2023-02-23T19:01:11.498Z,21.10
2023-02-23T19:03:13.121Z,23.02
2023-02-23T19:05:17.354Z,21.42
2023-02-23T19:07:19.715Z,22.63
2023-02-23T19:09:21.187Z,22.33
2023-02-23T19:11:42.565Z,22.77
2023-02-23T19:13:44.283Z,26.85
2023-02-23T19:15:45.948Z,31.35
2023-02-23T19:17:47.514Z,47.42
2023-02-23T19:19:49.138Z,46.80
2023-02-23T19:21:50.613Z,42.00
2023-02-23T19:23:53.229Z,115.55
2023-02-23T19:25:54.830Z,54.65
2023-02-23T19:27:56.977Z,36.20
2023-02-23T19:29:58.432Z,36.80
2023-02-23T19:32:00.125Z,47.22
2023-02-23T19:34:01.786Z,36.60
2023-02-23T19:36:05.823Z,25.88
2023-02-23T19:38:08.024Z,51.80
2023-02-23T19:40:10.194Z,85.85
2023-02-23T19:42:11.816Z,45.42
2023-02-23T19:44:13.367Z,49.22
2023-02-23T19:46:16.660Z,45.17
2023-02-23T19:48:18.384Z,61.83
2023-02-23T19:50:20.615Z,57.92
2023-02-23T19:52:22.096Z,52.38
2023-02-23T19:54:23.533Z,52.05
2023-02-23T19:56:26.184Z,41.60
2023-02-23T19:58:28.203Z,43.08
2023-02-23T20:00:29.630Z,59.30
2023-02-23T20:02:31.140Z,53.38
2023-02-23T20:04:32.876Z,44.28
2023-02-23T20:06:40.278Z,31.85
2023-02-23T20:08:43.203Z,42.80
2023-02-23T20:10:44.812Z,39.50
2023-02-23T20:12:46.236Z,38.28
2023-02-23T20:14:47.897Z,36.88
2023-02-23T20:16:49.465Z,41.17
2023-02-23T20:18:50.861Z,41.95
2023-02-23T20:20:52.354Z,42.28
2023-02-23T20:22:53.809Z,32.83
2023-02-23T20:24:55.210Z,39.45
2023-02-23T20:26:56.716Z,37.17
2023-02-23T20:28:58.439Z,34.60
2023-02-23T20:31:00.591Z,38.38
2023-02-23T20:33:05.425Z,33.20
2023-02-23T20:35:07.361Z,34.28
2023-02-23T20:37:08.864Z,44.80
2023-02-23T20:39:10.602Z,33.55
2023-02-23T20:41:12.176Z,29.27
2023-02-23T20:43:14.048Z,40.78
2023-02-23T20:45:18.486Z,35.78
2023-02-23T20:47:20.167Z,33.17
2023-02-23T20:49:21.708Z,35.47
2023-02-23T20:51:23.499Z,30.85
2023-02-23T20:53:26.375Z,31.30
2023-02-23T20:55:28.816Z,38.87
2023-02-23T20:57:30.454Z,35.38
2023-02-23T20:59:31.945Z,35.22
2023-02-23T21:01:33.375Z,32.40
2023-02-23T21:03:34.985Z,27.65
2023-02-23T21:05:39.322Z,28.73
2023-02-23T21:07:41.037Z,32.58
2023-02-23T21:09:42.587Z,29.27
2023-02-23T21:11:45.652Z,36.97
2023-02-23T21:13:47.337Z,32.00
2023-02-23T21:15:56.099Z,30.90
2023-02-23T21:17:58.863Z,30.38
2023-02-23T21:20:01.356Z,28.13
2023-02-23T21:22:02.917Z,33.50
2023-02-23T21:24:05.130Z,29.20
2023-02-23T21:26:06.538Z,28.08
2023-02-23T21:28:08.018Z,27.02
2023-02-23T21:30:11.021Z,27.48
2023-02-23T21:32:13.843Z,30.17
2023-02-23T21:34:15.824Z,30.05
2023-02-23T21:36:17.476Z,29.73
2023-02-23T21:38:18.895Z,28.23
2023-02-23T21:40:21.145Z,28.35
2023-02-23T21:42:23.961Z,30.67
2023-02-23T21:44:25.586Z,34.42
2023-02-23T21:46:28.004Z,33.30
2023-02-23T21:48:29.668Z,30.55
2023-02-23T21:50:31.208Z,31.08
2023-02-23T21:52:33.210Z,31.35
2023-02-23T21:54:34.784Z,33.28
2023-02-23T21:56:36.614Z,33.65
2023-02-23T21:58:39.606Z,30.70
2023-02-23T22:00:41.066Z,27.45
2023-02-23T22:02:42.576Z,29.45
2023-02-23T22:04:46.603Z,31.58
2023-02-23T22:06:48.232Z,28.48
2023-02-23T22:08:50.071Z,28.45
2023-02-23T22:10:51.548Z,29.33
2023-02-23T22:12:53.036Z,30.00
2023-02-23T22:14:54.603Z,30.10
2023-02-23T22:16:56.183Z,29.90
2023-02-23T22:18:58.032Z,29.80
2023-02-23T22:21:00.788Z,29.35
2023-02-23T22:23:02.359Z,30.75
2023-02-23T22:25:06.048Z,30.98
2023-02-23T22:29:10.501Z,30.27
2023-02-23T22:31:13.656Z,32.42
2023-02-23T22:33:15.226Z,29.67
2023-02-23T22:35:16.905Z,29.38
2023-02-23T22:37:18.628Z,28.98
2023-02-23T22:39:20.090Z,28.40
2023-02-23T22:41:21.915Z,32.67
2023-02-23T22:43:23.644Z,29.02
2023-02-23T22:45:25.038Z,29.08
2023-02-23T22:47:26.744Z,30.13
2023-02-23T22:49:28.396Z,28.55
2023-02-23T22:51:29.783Z,28.88
2023-02-23T22:53:31.570Z,28.45
2023-02-23T22:55:32.974Z,30.50
2023-02-23T22:57:34.594Z,29.45
2023-02-23T22:59:36.415Z,30.08
2023-02-23T23:01:38.964Z,30.33
2023-02-23T23:03:42.675Z,29.85
2023-02-23T23:07:49.620Z,28.98
2023-02-23T23:09:51.048Z,29.77
2023-02-23T23:11:52.577Z,30.30
2023-02-23T23:13:57.156Z,28.95
2023-02-23T23:16:07.834Z,30.23
2023-02-23T23:18:10.128Z,29.55
2023-02-23T23:20:12.187Z,29.80
2023-02-23T23:22:13.713Z,29.40
2023-02-23T23:24:15.294Z,30.75
2023-02-23T23:26:18.922Z,33.28
2023-02-23T23:30:21.900Z,32.03
2023-02-23T23:32:23.513Z,35.58
2023-02-23T23:34:25.384Z,38.65
2023-02-23T23:36:29.602Z,33.15
2023-02-23T23:38:31.045Z,32.70
2023-02-23T23:40:32.479Z,31.25
2023-02-23T23:42:34.258Z,31.38
2023-02-23T23:44:36.042Z,31.05
2023-02-23T23:46:40.400Z,30.75
2023-02-23T23:48:42.255Z,37.22
2023-02-23T23:50:43.701Z,35.78
2023-02-23T23:52:45.549Z,41.30
2023-02-23T23:54:48.284Z,35.80
2023-02-23T23:56:50.636Z,35.93
2023-02-23T23:58:53.760Z,34.25
